sensor_id;sensor_type;location;lat;lon;timestamp;temperature;humidity
21672;DHT22;10997;52.242;8.168;2023-05-19T00:03:07;7.10;99.90
21672;DHT22;10997;52.242;8.168;2023-05-19T00:08:09;6.90;99.90
21672;DHT22;10997;52.242;8.168;2023-05-19T00:13:10;6.90;99.90
21672;DHT22;10997;52.242;8.168;2023-05-19T00:18:11;6.90;99.90
21672;DHT22;10997;52.242;8.168;2023-05-19T00:23:13;6.90;99.90
21672;DHT22;10997;52.242;8.168;2023-05-19T00:28:13;6.90;99.90
21672;DHT22;10997;52.242;8.168;2023-05-19T00:33:14;6.80;99.90
21672;DHT22;10997;52.242;8.168;2023-05-19T00:38:14;6.70;99.90
21672;DHT22;10997;52.242;8.168;2023-05-19T00:43:15;6.60;99.90
21672;DHT22;10997;52.242;8.168;2023-05-19T00:48:16;6.60;99.90
21672;DHT22;10997;52.242;8.168;2023-05-19T00:53:17;6.60;99.90
21672;DHT22;10997;52.242;8.168;2023-05-19T00:58:18;6.40;99.90
21672;DHT22;10997;52.242;8.168;2023-05-19T01:03:19;6.40;99.90
21672;DHT22;10997;52.242;8.168;2023-05-19T01:08:19;6.30;99.90
21672;DHT22;10997;52.242;8.168;2023-05-19T01:13:20;6.30;99.90
21672;DHT22;10997;52.242;8.168;2023-05-19T01:18:28;6.30;99.90
21672;DHT22;10997;52.242;8.168;2023-05-19T01:23:41;6.20;99.90
21672;DHT22;10997;52.242;8.168;2023-05-19T01:29:16;6.20;99.90
21672;DHT22;10997;52.242;8.168;2023-05-19T01:34:25;6.10;99.90
21672;DHT22;10997;52.242;8.168;2023-05-19T01:39:27;6.10;99.90
21672;DHT22;10997;52.242;8.168;2023-05-19T01:44:28;6.00;99.90
21672;DHT22;10997;52.242;8.168;2023-05-19T01:49:28;5.90;99.90
21672;DHT22;10997;52.242;8.168;2023-05-19T01:54:29;5.80;99.90
21672;DHT22;10997;52.242;8.168;2023-05-19T01:59:43;5.70;99.90
21672;DHT22;10997;52.242;8.168;2023-05-19T02:04:50;5.60;99.90
21672;DHT22;10997;52.242;8.168;2023-05-19T02:09:57;5.60;99.90
21672;DHT22;10997;52.242;8.168;2023-05-19T02:15:16;5.60;99.90
21672;DHT22;10997;52.242;8.168;2023-05-19T02:20:18;5.70;99.90
21672;DHT22;10997;52.242;8.168;2023-05-19T02:25:18;5.70;99.90
21672;DHT22;10997;52.242;8.168;2023-05-19T02:30:20;5.60;99.90
21672;DHT22;10997;52.242;8.168;2023-05-19T02:35:21;5.50;99.90
21672;DHT22;10997;52.242;8.168;2023-05-19T02:40:22;5.50;99.90
21672;DHT22;10997;52.242;8.168;2023-05-19T02:45:22;5.30;99.90
21672;DHT22;10997;52.242;8.168;2023-05-19T02:50:23;5.20;99.90
21672;DHT22;10997;52.242;8.168;2023-05-19T02:55:24;5.30;99.90
21672;DHT22;10997;52.242;8.168;2023-05-19T03:00:25;5.20;99.90
21672;DHT22;10997;52.242;8.168;2023-05-19T03:05:25;5.20;99.90
21672;DHT22;10997;52.242;8.168;2023-05-19T03:10:26;5.10;99.90
21672;DHT22;10997;52.242;8.168;2023-05-19T03:15:26;5.10;99.90
21672;DHT22;10997;52.242;8.168;2023-05-19T03:20:27;5.20;99.90
21672;DHT22;10997;52.242;8.168;2023-05-19T03:25:29;5.10;99.90
21672;DHT22;10997;52.242;8.168;2023-05-19T03:30:30;5.10;99.90
21672;DHT22;10997;52.242;8.168;2023-05-19T03:35:30;5.00;99.90
21672;DHT22;10997;52.242;8.168;2023-05-19T03:40:31;5.00;99.90
21672;DHT22;10997;52.242;8.168;2023-05-19T03:45:31;5.00;99.90
21672;DHT22;10997;52.242;8.168;2023-05-19T03:50:32;5.00;99.90
21672;DHT22;10997;52.242;8.168;2023-05-19T03:55:33;5.00;99.90
21672;DHT22;10997;52.242;8.168;2023-05-19T04:00:33;5.00;99.90
21672;DHT22;10997;52.242;8.168;2023-05-19T04:05:34;5.10;99.90
21672;DHT22;10997;52.242;8.168;2023-05-19T04:10:35;5.10;99.90
21672;DHT22;10997;52.242;8.168;2023-05-19T04:15:35;5.20;99.90
21672;DHT22;10997;52.242;8.168;2023-05-19T04:20:36;5.30;99.90
21672;DHT22;10997;52.242;8.168;2023-05-19T04:25:37;5.50;99.90
21672;DHT22;10997;52.242;8.168;2023-05-19T04:30:37;5.50;99.90
21672;DHT22;10997;52.242;8.168;2023-05-19T04:35:38;5.60;99.90
21672;DHT22;10997;52.242;8.168;2023-05-19T04:40:39;5.90;99.90
21672;DHT22;10997;52.242;8.168;2023-05-19T04:45:39;6.00;99.90
21672;DHT22;10997;52.242;8.168;2023-05-19T04:50:41;6.10;99.90
21672;DHT22;10997;52.242;8.168;2023-05-19T04:55:43;6.30;99.90
21672;DHT22;10997;52.242;8.168;2023-05-19T05:00:43;6.50;99.90
21672;DHT22;10997;52.242;8.168;2023-05-19T05:05:44;6.70;99.90
21672;DHT22;10997;52.242;8.168;2023-05-19T05:10:44;6.80;99.90
21672;DHT22;10997;52.242;8.168;2023-05-19T05:15:45;6.80;99.90
21672;DHT22;10997;52.242;8.168;2023-05-19T05:20:46;6.80;99.90
21672;DHT22;10997;52.242;8.168;2023-05-19T05:25:47;7.00;99.90
21672;DHT22;10997;52.242;8.168;2023-05-19T05:30:48;7.20;99.90
21672;DHT22;10997;52.242;8.168;2023-05-19T05:35:49;7.40;99.90
21672;DHT22;10997;52.242;8.168;2023-05-19T05:40:50;7.70;99.90
21672;DHT22;10997;52.242;8.168;2023-05-19T05:45:51;8.00;99.90
21672;DHT22;10997;52.242;8.168;2023-05-19T05:50:52;8.30;99.90
21672;DHT22;10997;52.242;8.168;2023-05-19T05:55:54;8.50;99.90
21672;DHT22;10997;52.242;8.168;2023-05-19T06:00:54;8.50;99.90
21672;DHT22;10997;52.242;8.168;2023-05-19T06:05:57;8.70;99.90
21672;DHT22;10997;52.242;8.168;2023-05-19T06:10:57;8.90;99.90
21672;DHT22;10997;52.242;8.168;2023-05-19T06:15:58;9.10;99.90
21672;DHT22;10997;52.242;8.168;2023-05-19T06:20:58;9.40;99.90
21672;DHT22;10997;52.242;8.168;2023-05-19T06:25:59;9.70;99.90
21672;DHT22;10997;52.242;8.168;2023-05-19T06:30:59;10.10;99.90
21672;DHT22;10997;52.242;8.168;2023-05-19T06:36:00;10.30;99.90
21672;DHT22;10997;52.242;8.168;2023-05-19T06:41:00;10.50;99.90
21672;DHT22;10997;52.242;8.168;2023-05-19T06:46:01;10.80;99.90
21672;DHT22;10997;52.242;8.168;2023-05-19T06:51:02;11.20;99.90
21672;DHT22;10997;52.242;8.168;2023-05-19T06:56:03;11.40;99.90
21672;DHT22;10997;52.242;8.168;2023-05-19T07:01:04;11.50;99.90
21672;DHT22;10997;52.242;8.168;2023-05-19T07:06:04;11.70;99.90
21672;DHT22;10997;52.242;8.168;2023-05-19T07:11:05;12.00;99.90
21672;DHT22;10997;52.242;8.168;2023-05-19T07:16:06;12.10;99.90
21672;DHT22;10997;52.242;8.168;2023-05-19T07:21:06;12.30;99.90
21672;DHT22;10997;52.242;8.168;2023-05-19T07:26:07;12.40;99.90
21672;DHT22;10997;52.242;8.168;2023-05-19T07:31:08;12.40;99.90
21672;DHT22;10997;52.242;8.168;2023-05-19T07:36:08;12.50;99.90
21672;DHT22;10997;52.242;8.168;2023-05-19T07:41:09;12.90;99.90
21672;DHT22;10997;52.242;8.168;2023-05-19T07:46:10;13.20;99.90
21672;DHT22;10997;52.242;8.168;2023-05-19T07:51:11;13.40;99.90
21672;DHT22;10997;52.242;8.168;2023-05-19T07:56:12;13.60;99.90
21672;DHT22;10997;52.242;8.168;2023-05-19T08:01:12;13.90;99.90
21672;DHT22;10997;52.242;8.168;2023-05-19T08:06:13;14.10;99.90
21672;DHT22;10997;52.242;8.168;2023-05-19T08:11:14;14.20;99.90
21672;DHT22;10997;52.242;8.168;2023-05-19T08:16:15;14.50;99.90
21672;DHT22;10997;52.242;8.168;2023-05-19T08:21:15;14.90;99.90
21672;DHT22;10997;52.242;8.168;2023-05-19T08:26:16;15.20;99.90
21672;DHT22;10997;52.242;8.168;2023-05-19T08:31:16;15.40;99.90
21672;DHT22;10997;52.242;8.168;2023-05-19T08:36:18;15.50;99.90
21672;DHT22;10997;52.242;8.168;2023-05-19T08:41:18;15.50;99.90
21672;DHT22;10997;52.242;8.168;2023-05-19T08:46:20;15.70;99.90
21672;DHT22;10997;52.242;8.168;2023-05-19T08:51:32;15.70;99.90
21672;DHT22;10997;52.242;8.168;2023-05-19T08:56:35;15.90;99.90
21672;DHT22;10997;52.242;8.168;2023-05-19T09:01:37;16.30;99.90
21672;DHT22;10997;52.242;8.168;2023-05-19T09:06:39;16.50;99.90
21672;DHT22;10997;52.242;8.168;2023-05-19T09:11:45;16.60;99.90
21672;DHT22;10997;52.242;8.168;2023-05-19T09:16:45;16.60;99.90
21672;DHT22;10997;52.242;8.168;2023-05-19T09:22:00;16.90;99.90
21672;DHT22;10997;52.242;8.168;2023-05-19T09:27:04;17.40;99.90
21672;DHT22;10997;52.242;8.168;2023-05-19T09:32:05;17.20;99.90
21672;DHT22;10997;52.242;8.168;2023-05-19T09:37:06;17.50;99.90
21672;DHT22;10997;52.242;8.168;2023-05-19T09:42:07;17.70;99.60
21672;DHT22;10997;52.242;8.168;2023-05-19T09:47:08;18.00;98.40
21672;DHT22;10997;52.242;8.168;2023-05-19T09:52:09;18.30;97.20
21672;DHT22;10997;52.242;8.168;2023-05-19T09:57:09;18.40;96.90
21672;DHT22;10997;52.242;8.168;2023-05-19T10:02:15;18.80;96.20
21672;DHT22;10997;52.242;8.168;2023-05-19T10:07:16;18.90;94.70
21672;DHT22;10997;52.242;8.168;2023-05-19T10:12:19;19.10;95.10
21672;DHT22;10997;52.242;8.168;2023-05-19T10:17:20;19.00;93.30
21672;DHT22;10997;52.242;8.168;2023-05-19T10:22:21;19.20;94.50
21672;DHT22;10997;52.242;8.168;2023-05-19T10:27:25;19.20;93.40
21672;DHT22;10997;52.242;8.168;2023-05-19T10:32:29;19.50;92.90
21672;DHT22;10997;52.242;8.168;2023-05-19T10:37:52;19.80;92.80
21672;DHT22;10997;52.242;8.168;2023-05-19T10:43:36;20.50;91.70
21672;DHT22;10997;52.242;8.168;2023-05-19T10:48:33;20.10;90.20
21672;DHT22;10997;52.242;8.168;2023-05-19T10:53:41;19.80;91.20
21672;DHT22;10997;52.242;8.168;2023-05-19T11:03:50;20.20;90.00
21672;DHT22;10997;52.242;8.168;2023-05-19T11:08:54;20.80;90.50
21672;DHT22;10997;52.242;8.168;2023-05-19T11:13:55;20.80;89.90
21672;DHT22;10997;52.242;8.168;2023-05-19T11:18:58;20.10;87.00
21672;DHT22;10997;52.242;8.168;2023-05-19T11:23:59;19.60;85.70
21672;DHT22;10997;52.242;8.168;2023-05-19T11:28:59;20.00;84.80
21672;DHT22;10997;52.242;8.168;2023-05-19T11:34:01;20.60;82.00
21672;DHT22;10997;52.242;8.168;2023-05-19T11:39:01;20.20;82.90
21672;DHT22;10997;52.242;8.168;2023-05-19T11:44:05;20.10;82.70
21672;DHT22;10997;52.242;8.168;2023-05-19T11:49:08;20.80;83.90
21672;DHT22;10997;52.242;8.168;2023-05-19T11:54:09;21.50;82.20
21672;DHT22;10997;52.242;8.168;2023-05-19T11:59:10;21.70;79.50
21672;DHT22;10997;52.242;8.168;2023-05-19T12:04:11;22.00;79.60
21672;DHT22;10997;52.242;8.168;2023-05-19T12:09:12;21.70;78.80
21672;DHT22;10997;52.242;8.168;2023-05-19T12:14:12;20.80;78.50
21672;DHT22;10997;52.242;8.168;2023-05-19T12:19:13;20.60;78.30
21672;DHT22;10997;52.242;8.168;2023-05-19T12:24:13;21.10;76.30
21672;DHT22;10997;52.242;8.168;2023-05-19T12:29:14;21.70;76.40
21672;DHT22;10997;52.242;8.168;2023-05-19T12:34:15;22.10;75.30
21672;DHT22;10997;52.242;8.168;2023-05-19T12:39:15;22.10;74.90
21672;DHT22;10997;52.242;8.168;2023-05-19T12:44:16;21.80;74.20
21672;DHT22;10997;52.242;8.168;2023-05-19T12:49:17;21.50;74.20
21672;DHT22;10997;52.242;8.168;2023-05-19T12:54:21;21.40;73.20
21672;DHT22;10997;52.242;8.168;2023-05-19T12:59:25;21.60;73.00
21672;DHT22;10997;52.242;8.168;2023-05-19T13:04:27;20.90;72.90
21672;DHT22;10997;52.242;8.168;2023-05-19T13:09:27;20.60;73.40
21672;DHT22;10997;52.242;8.168;2023-05-19T13:14:28;21.00;73.10
21672;DHT22;10997;52.242;8.168;2023-05-19T13:19:28;21.60;74.30
21672;DHT22;10997;52.242;8.168;2023-05-19T13:24:29;22.00;72.30
21672;DHT22;10997;52.242;8.168;2023-05-19T13:29:30;21.20;71.60
21672;DHT22;10997;52.242;8.168;2023-05-19T13:34:30;21.40;72.60
21672;DHT22;10997;52.242;8.168;2023-05-19T13:39:31;21.90;71.40
21672;DHT22;10997;52.242;8.168;2023-05-19T13:44:32;21.50;71.10
21672;DHT22;10997;52.242;8.168;2023-05-19T13:49:32;21.60;71.60
21672;DHT22;10997;52.242;8.168;2023-05-19T13:54:33;22.10;71.30
21672;DHT22;10997;52.242;8.168;2023-05-19T13:59:34;22.60;68.30
21672;DHT22;10997;52.242;8.168;2023-05-19T14:04:36;21.90;67.90
21672;DHT22;10997;52.242;8.168;2023-05-19T14:09:37;21.10;68.70
21672;DHT22;10997;52.242;8.168;2023-05-19T14:14:38;21.40;67.70
21672;DHT22;10997;52.242;8.168;2023-05-19T14:19:39;21.70;66.20
21672;DHT22;10997;52.242;8.168;2023-05-19T14:24:40;21.80;65.50
21672;DHT22;10997;52.242;8.168;2023-05-19T14:29:41;21.30;65.90
21672;DHT22;10997;52.242;8.168;2023-05-19T14:34:42;21.30;64.30
21672;DHT22;10997;52.242;8.168;2023-05-19T14:39:42;21.60;62.40
21672;DHT22;10997;52.242;8.168;2023-05-19T14:44:43;21.60;61.80
21672;DHT22;10997;52.242;8.168;2023-05-19T14:49:44;21.90;61.90
21672;DHT22;10997;52.242;8.168;2023-05-19T14:54:45;22.30;62.90
21672;DHT22;10997;52.242;8.168;2023-05-19T14:59:45;22.90;63.60
21672;DHT22;10997;52.242;8.168;2023-05-19T15:04:46;23.50;64.90
21672;DHT22;10997;52.242;8.168;2023-05-19T15:09:46;23.30;65.40
21672;DHT22;10997;52.242;8.168;2023-05-19T15:14:47;23.30;66.00
21672;DHT22;10997;52.242;8.168;2023-05-19T15:19:47;22.80;65.40
21672;DHT22;10997;52.242;8.168;2023-05-19T15:24:48;22.40;67.10
21672;DHT22;10997;52.242;8.168;2023-05-19T15:29:49;22.30;66.90
21672;DHT22;10997;52.242;8.168;2023-05-19T15:34:49;21.50;67.60
21672;DHT22;10997;52.242;8.168;2023-05-19T15:39:50;21.30;68.30
21672;DHT22;10997;52.242;8.168;2023-05-19T15:44:51;21.50;67.00
21672;DHT22;10997;52.242;8.168;2023-05-19T15:49:51;21.70;66.20
21672;DHT22;10997;52.242;8.168;2023-05-19T15:54:52;21.30;66.30
21672;DHT22;10997;52.242;8.168;2023-05-19T15:59:54;21.20;68.10
21672;DHT22;10997;52.242;8.168;2023-05-19T16:04:55;21.70;68.20
21672;DHT22;10997;52.242;8.168;2023-05-19T16:09:55;21.90;66.80
21672;DHT22;10997;52.242;8.168;2023-05-19T16:14:56;22.20;65.90
21672;DHT22;10997;52.242;8.168;2023-05-19T16:19:56;22.10;65.80
21672;DHT22;10997;52.242;8.168;2023-05-19T16:24:57;21.90;66.40
21672;DHT22;10997;52.242;8.168;2023-05-19T16:29:58;21.40;67.80
21672;DHT22;10997;52.242;8.168;2023-05-19T16:35:00;20.80;67.70
21672;DHT22;10997;52.242;8.168;2023-05-19T16:40:01;20.70;67.80
21672;DHT22;10997;52.242;8.168;2023-05-19T16:45:02;20.70;66.90
21672;DHT22;10997;52.242;8.168;2023-05-19T16:50:03;20.70;66.70
21672;DHT22;10997;52.242;8.168;2023-05-19T16:55:05;20.90;67.60
21672;DHT22;10997;52.242;8.168;2023-05-19T17:00:06;21.10;67.70
21672;DHT22;10997;52.242;8.168;2023-05-19T17:05:07;21.10;67.80
21672;DHT22;10997;52.242;8.168;2023-05-19T17:10:08;21.20;67.40
21672;DHT22;10997;52.242;8.168;2023-05-19T17:15:09;21.10;66.60
21672;DHT22;10997;52.242;8.168;2023-05-19T17:20:10;20.80;66.40
21672;DHT22;10997;52.242;8.168;2023-05-19T17:25:11;20.90;66.60
21672;DHT22;10997;52.242;8.168;2023-05-19T17:30:12;21.10;66.60
21672;DHT22;10997;52.242;8.168;2023-05-19T17:35:13;21.20;66.30
21672;DHT22;10997;52.242;8.168;2023-05-19T17:40:13;20.90;66.20
21672;DHT22;10997;52.242;8.168;2023-05-19T17:45:14;20.50;66.70
21672;DHT22;10997;52.242;8.168;2023-05-19T17:50:15;20.50;66.80
21672;DHT22;10997;52.242;8.168;2023-05-19T17:55:16;20.30;66.70
21672;DHT22;10997;52.242;8.168;2023-05-19T18:00:17;20.30;68.10
21672;DHT22;10997;52.242;8.168;2023-05-19T18:05:18;20.50;68.90
21672;DHT22;10997;52.242;8.168;2023-05-19T18:10:19;20.60;69.20
21672;DHT22;10997;52.242;8.168;2023-05-19T18:15:20;20.40;68.40
21672;DHT22;10997;52.242;8.168;2023-05-19T18:20:20;20.40;70.40
21672;DHT22;10997;52.242;8.168;2023-05-19T18:25:21;20.30;70.10
21672;DHT22;10997;52.242;8.168;2023-05-19T18:30:22;20.30;69.60
21672;DHT22;10997;52.242;8.168;2023-05-19T18:35:23;20.00;69.70
21672;DHT22;10997;52.242;8.168;2023-05-19T18:40:23;20.20;71.40
21672;DHT22;10997;52.242;8.168;2023-05-19T18:45:24;20.10;70.10
21672;DHT22;10997;52.242;8.168;2023-05-19T18:50:24;19.90;70.30
21672;DHT22;10997;52.242;8.168;2023-05-19T18:55:25;19.70;70.90
21672;DHT22;10997;52.242;8.168;2023-05-19T19:00:26;19.40;71.40
21672;DHT22;10997;52.242;8.168;2023-05-19T19:05:28;19.10;72.60
21672;DHT22;10997;52.242;8.168;2023-05-19T19:10:28;18.80;74.10
21672;DHT22;10997;52.242;8.168;2023-05-19T19:15:32;18.50;73.40
21672;DHT22;10997;52.242;8.168;2023-05-19T19:20:33;18.20;74.40
21672;DHT22;10997;52.242;8.168;2023-05-19T19:25:33;17.90;75.70
21672;DHT22;10997;52.242;8.168;2023-05-19T19:30:34;17.60;76.50
21672;DHT22;10997;52.242;8.168;2023-05-19T19:35:35;17.30;77.20
21672;DHT22;10997;52.242;8.168;2023-05-19T19:40:35;17.10;78.90
21672;DHT22;10997;52.242;8.168;2023-05-19T19:45:36;16.80;80.40
21672;DHT22;10997;52.242;8.168;2023-05-19T19:50:38;16.60;81.70
21672;DHT22;10997;52.242;8.168;2023-05-19T19:55:39;16.40;83.50
21672;DHT22;10997;52.242;8.168;2023-05-19T20:00:40;16.10;85.60
21672;DHT22;10997;52.242;8.168;2023-05-19T20:05:41;15.90;87.60
21672;DHT22;10997;52.242;8.168;2023-05-19T20:10:45;15.60;89.40
21672;DHT22;10997;52.242;8.168;2023-05-19T20:15:46;15.30;90.40
21672;DHT22;10997;52.242;8.168;2023-05-19T20:20:47;15.00;90.20
21672;DHT22;10997;52.242;8.168;2023-05-19T20:25:47;14.90;90.70
21672;DHT22;10997;52.242;8.168;2023-05-19T20:30:48;14.80;91.40
21672;DHT22;10997;52.242;8.168;2023-05-19T20:35:49;14.70;91.60
21672;DHT22;10997;52.242;8.168;2023-05-19T20:40:49;14.50;92.30
21672;DHT22;10997;52.242;8.168;2023-05-19T20:45:50;14.30;93.30
21672;DHT22;10997;52.242;8.168;2023-05-19T20:50:53;14.20;93.90
21672;DHT22;10997;52.242;8.168;2023-05-19T20:55:54;14.30;93.60
21672;DHT22;10997;52.242;8.168;2023-05-19T21:00:54;14.40;92.60
21672;DHT22;10997;52.242;8.168;2023-05-19T21:05:57;14.60;92.00
21672;DHT22;10997;52.242;8.168;2023-05-19T21:10:57;14.60;91.80
21672;DHT22;10997;52.242;8.168;2023-05-19T21:15:58;14.70;91.70
21672;DHT22;10997;52.242;8.168;2023-05-19T21:21:01;14.80;91.90
21672;DHT22;10997;52.242;8.168;2023-05-19T21:26:03;14.80;92.00
21672;DHT22;10997;52.242;8.168;2023-05-19T21:31:04;14.80;92.20
21672;DHT22;10997;52.242;8.168;2023-05-19T21:36:05;14.80;92.70
21672;DHT22;10997;52.242;8.168;2023-05-19T21:41:05;14.70;93.10
21672;DHT22;10997;52.242;8.168;2023-05-19T21:46:06;14.70;93.50
21672;DHT22;10997;52.242;8.168;2023-05-19T21:51:07;14.70;94.20
21672;DHT22;10997;52.242;8.168;2023-05-19T21:56:07;14.70;94.70
21672;DHT22;10997;52.242;8.168;2023-05-19T22:01:08;14.60;95.40
21672;DHT22;10997;52.242;8.168;2023-05-19T22:06:09;14.60;95.80
21672;DHT22;10997;52.242;8.168;2023-05-19T22:11:09;14.60;96.30
21672;DHT22;10997;52.242;8.168;2023-05-19T22:16:10;14.60;96.70
21672;DHT22;10997;52.242;8.168;2023-05-19T22:21:10;14.60;97.10
21672;DHT22;10997;52.242;8.168;2023-05-19T22:26:11;14.60;97.40
21672;DHT22;10997;52.242;8.168;2023-05-19T22:31:12;14.60;97.90
21672;DHT22;10997;52.242;8.168;2023-05-19T22:36:12;14.60;98.10
21672;DHT22;10997;52.242;8.168;2023-05-19T22:41:15;14.60;98.40
21672;DHT22;10997;52.242;8.168;2023-05-19T22:46:15;14.60;98.80
21672;DHT22;10997;52.242;8.168;2023-05-19T22:51:16;14.50;99.20
21672;DHT22;10997;52.242;8.168;2023-05-19T22:56:16;14.40;99.80
21672;DHT22;10997;52.242;8.168;2023-05-19T23:01:17;14.40;99.90
21672;DHT22;10997;52.242;8.168;2023-05-19T23:06:18;14.40;99.90
21672;DHT22;10997;52.242;8.168;2023-05-19T23:11:18;14.30;99.90
21672;DHT22;10997;52.242;8.168;2023-05-19T23:16:19;14.30;99.90
21672;DHT22;10997;52.242;8.168;2023-05-19T23:21:20;14.20;99.90
21672;DHT22;10997;52.242;8.168;2023-05-19T23:26:20;14.10;99.90
21672;DHT22;10997;52.242;8.168;2023-05-19T23:31:21;14.00;99.90
21672;DHT22;10997;52.242;8.168;2023-05-19T23:36:22;13.70;99.90
21672;DHT22;10997;52.242;8.168;2023-05-19T23:41:22;13.60;99.90
21672;DHT22;10997;52.242;8.168;2023-05-19T23:46:23;13.50;99.90
21672;DHT22;10997;52.242;8.168;2023-05-19T23:51:23;13.40;99.90
21672;DHT22;10997;52.242;8.168;2023-05-19T23:56:24;13.30;99.90
